Latest Coastal Weather Observations for Cape Ferguson

IDQ60701

Issued at 1:45 am EST Saturday 2 August 2014 (issued every 10 minutes, with the page automatically refreshed every 10 minutes)

About coastal observations | Map of coastal stations | Coastal observations for QLD | Marine services | Other Formats
Station Details ID: 032182 Name: CAPE FERGUSON NTC AWS Lat: -19.28 Lon: 147.06 Height: 0.0 m
Data from the previous 72 hours. | See also: Recent months for locations in Queensland
Date/Time
EST
Temp

°C
Wind Pressure Rain
since 9am
mm
Weather Cloud Vis
km
Sea
Height
m
Swell
Dir
 
Speed
knots
Gust
knots
hPa Trend Height
m
Period
s
Dir
02/01:30am 19.3 WNW 1 2 1017.2 - - - - - - - - -
02/01:00am 20.1 WNW 1 2 1017.3 - - - - - - - - -
02/12:30am 20.5 WNW 1 3 1017.2 - - - - - - - - -
02/12:00am 20.4 NW 1 2 1017.3 - - - - - - - - -
 
Date/Time
EST
Temp

°C
Wind Pressure Rain
since 9am
mm
Weather Cloud Vis
km
Sea
Height
m
Swell
Dir
 
Speed
knots
Gust
knots
hPa Trend Height
m
Period
s
Dir
01/11:30pm 20.4 WNW 1 2 1017.4 - - - - - - - - -
01/11:00pm 20.8 CALM 0 4 1017.5 - - - - - - - - -
01/10:30pm 20.5 WNW 2 3 1017.7 - - - - - - - - -
01/10:00pm 21.0 SSW 1 2 1017.7 - - - - - - - - -
01/09:30pm 21.3 NW 2 4 1017.4 - - - - - - - - -
01/09:00pm 21.8 NW 2 4 1017.2 - - - - - - - - -
01/08:30pm 22.5 NNW 4 7 1017.1 - - - - - - - - -
01/08:00pm 22.3 N 5 7 1016.8 - - - - - - - - -
01/07:30pm 22.1 NNW 5 8 1016.6 - - - - - - - - -
01/07:00pm 22.1 NNW 3 7 1016.4 - - - - - - - - -
01/06:30pm 22.1 NW 4 8 1015.8 - - - - - - - - -
01/06:00pm 22.4 N 2 6 1015.5 - - - - - - - - -
01/05:30pm 22.6 NW 3 8 1014.9 - - - - - - - - -
01/05:00pm 22.8 ENE 4 11 1014.7 - - - - - - - - -
01/04:30pm 22.5 NE 7 12 1014.7 - - - - - - - - -
01/04:00pm 22.7 NE 6 11 1014.6 - - - - - - - - -
01/03:30pm 22.7 NE 5 10 1014.8 - - - - - - - - -
01/03:00pm 22.7 NE 7 12 1015.0 - - - - - - - - -
01/02:30pm 22.9 NE 6 10 1015.2 - - - - - - - - -
01/02:00pm 22.8 NE 5 8 1015.5 - - - - - - - - -
01/01:30pm 22.6 ENE 5 9 1015.9 - - - - - - - - -
01/01:00pm 22.0 ENE 6 8 1016.5 - - - - - - - - -
01/12:30pm 22.0 ENE 5 6 1016.9 - - - - - - - - -
01/12:00pm 21.6 E 5 6 1017.3 - - - - - - - - -
01/11:30am 21.6 ESE 5 6 1017.8 - - - - - - - - -
01/11:00am 21.4 ESE 5 6 1018.0 - - - - - - - - -
01/10:30am 21.1 SE 5 6 1018.4 - - - - - - - - -
01/10:00am 20.8 SSE 5 6 1018.5 - - - - - - - - -
01/09:30am 20.6 SSE 5 6 1018.5 - - - - - - - - -
01/09:00am 20.2 S 2 4 1018.4 - - - - - - - - -
01/08:30am 20.0 WSW 2 3 1018.1 - - - - - - - - -
01/08:00am 19.6 SW 3 5 1018.0 - - - - - - - - -
01/07:30am 18.9 WNW 4 5 1017.6 - - - - - - - - -
01/07:00am 19.3 SW 2 3 1017.4 - - - - - - - - -
01/06:30am 19.5 S 3 5 1017.1 - - - - - - - - -
01/06:00am 19.4 NW 2 3 1016.7 - - - - - - - - -
01/05:30am 19.9 WNW 1 2 1016.4 - - - - - - - - -
01/05:00am 20.0 NW 4 5 1016.1 - - - - - - - - -
01/04:30am 19.1 WNW 3 4 1015.9 - - - - - - - - -
01/04:00am 19.9 WNW 1 2 1015.9 - - - - - - - - -
01/03:30am 19.7 NW 2 3 1016.0 - - - - - - - - -
01/03:00am 19.3 NW 3 4 1016.2 - - - - - - - - -
01/02:30am 19.5 W 2 3 1016.4 - - - - - - - - -
01/02:00am 19.4 W 1 2 1016.5 - - - - - - - - -
01/01:30am 19.7 W 1 2 1016.8 - - - - - - - - -
01/01:00am 20.1 WNW 2 3 1017.0 - - - - - - - - -
01/12:30am 20.9 NNW 1 2 1017.2 - - - - - - - - -
01/12:00am 21.5 NNW 2 3 1017.2 - - - - - - - - -
 
Date/Time
EST
Temp

°C
Wind Pressure Rain
since 9am
mm
Weather Cloud Vis
km
Sea
Height
m
Swell
Dir
 
Speed
knots
Gust
knots
hPa Trend Height
m
Period
s
Dir
31/11:30pm 21.8 NE 2 4 1017.4 - - - - - - - - -
31/11:00pm 22.1 ENE 4 5 1017.5 - - - - - - - - -
31/10:30pm 22.2 ENE 7 9 1017.7 - - - - - - - - -
31/10:00pm 22.2 ENE 8 9 1017.8 - - - - - - - - -
31/09:30pm 22.2 ENE 5 7 1017.8 - - - - - - - - -
31/09:00pm 22.2 ENE 5 7 1017.7 - - - - - - - - -
31/08:30pm 22.2 ENE 5 6 1017.6 - - - - - - - - -
31/08:00pm 22.2 ENE 6 8 1017.6 - - - - - - - - -
31/07:30pm 22.1 ENE 6 8 1017.2 - - - - - - - - -
31/07:00pm 22.1 ENE 7 9 1016.6 - - - - - - - - -
31/06:30pm 22.0 ENE 8 10 1016.2 - - - - - - - - -
31/06:00pm 22.1 ENE 10 11 1016.1 - - - - - - - - -
31/05:30pm 22.1 ENE 9 11 1016.0 - - - - - - - - -
31/05:00pm 22.1 ENE 9 12 1015.9 - - - - - - - - -
31/04:30pm 22.1 ENE 9 10 1015.9 - - - - - - - - -
31/04:00pm 22.1 ENE 8 11 1015.8 - - - - - - - - -
31/03:30pm 22.1 ENE 9 11 1015.8 - - - - - - - - -
31/03:00pm 22.0 ENE 9 10 1015.7 - - - - - - - - -
31/02:30pm 22.0 ENE 9 11 1016.0 - - - - - - - - -
31/02:00pm 22.0 ENE 7 9 1016.3 - - - - - - - - -
31/01:30pm 22.0 ENE 6 8 1016.8 - - - - - - - - -
31/01:00pm 22.0 ENE 5 6 1017.1 - - - - - - - - -
31/12:30pm 21.8 E 3 4 1017.6 - - - - - - - - -
31/12:00pm 21.6 ESE 4 5 1018.2 - - - - - - - - -
31/11:30am 21.5 ESE 5 6 1018.8 - - - - - - - - -
31/11:00am 21.2 ESE 7 8 1019.2 - - - - - - - - -
31/10:30am 21.1 SE 7 8 1019.4 - - - - - - - - -
31/10:00am 20.9 SSE 6 8 1019.7 - - - - - - - - -
31/09:30am 20.6 SSE 4 6 1019.7 - - - - - - - - -
31/09:00am 20.0 SSE 6 8 1019.7 - - - - - - - - -
31/08:30am 19.8 SSE 8 10 1019.5 - - - - - - - - -
31/08:00am 19.4 SSE 11 13 1019.2 - - - - - - - - -
31/07:30am 19.6 SSE 10 12 1019.0 - - - - - - - - -
31/07:00am 19.3 S 8 9 1018.7 - - - - - - - - -
31/06:30am 19.3 S 6 8 1018.5 - - - - - - - - -
31/06:00am 19.5 S 7 8 1018.3 - - - - - - - - -
31/05:30am 19.8 S 5 8 1018.1 - - - - - - - - -
31/05:00am 19.5 SW 3 7 1017.9 - - - - - - - - -
31/04:30am 19.4 S 7 8 1017.9 - - - - - - - - -
31/04:00am 19.4 SSE 9 11 1017.9 - - - - - - - - -
31/03:30am 19.4 SSE 9 11 1018.2 - - - - - - - - -
31/03:00am 19.7 SSE 9 10 1018.3 - - - - - - - - -
31/02:30am 20.0 SSE 7 8 1018.3 - - - - - - - - -
31/02:00am 20.3 SE 8 10 1018.5 - - - - - - - - -
31/01:30am 20.5 SSE 6 8 1018.8 - - - - - - - - -
31/01:00am 20.7 SSE 6 8 1018.9 - - - - - - - - -
31/12:30am 20.9 SSE 7 9 1019.2 - - - - - - - - -
31/12:00am 21.2 SSE 7 9 1019.2 - - - - - - - - -
 
Date/Time
EST
Temp

°C
Wind Pressure Rain
since 9am
mm
Weather Cloud Vis
km
Sea
Height
m
Swell
Dir
 
Speed
knots
Gust
knots
hPa Trend Height
m
Period
s
Dir
30/11:30pm 21.2 SSE 7 8 1019.2 - - - - - - - - -
30/11:00pm 21.5 SE 8 10 1019.4 - - - - - - - - -
30/10:30pm 22.0 E 12 14 1019.6 - - - - - - - - -
30/10:00pm 21.9 E 11 14 1019.8 - - - - - - - - -
30/09:30pm 22.0 E 12 15 1019.7 - - - - - - - - -
30/09:00pm 22.1 E 12 14 1019.5 - - - - - - - - -
30/08:30pm 22.2 E 13 15 1019.3 - - - - - - - - -
30/08:00pm 22.1 E 13 16 1019.2 - - - - - - - - -
30/07:30pm 22.0 E 13 15 1019.0 - - - - - - - - -
30/07:00pm 21.9 E 12 14 1018.8 - - - - - - - - -
30/06:30pm 22.0 E 11 13 1018.3 - - - - - - - - -
30/06:00pm 21.8 E 11 14 1018.2 - - - - - - - - -
30/05:30pm 21.9 E 12 14 1017.9 - - - - - - - - -
30/05:00pm 21.9 E 11 14 1017.9 - - - - - - - - -
30/04:30pm 21.9 E 11 14 1017.7 - - - - - - - - -
30/04:00pm 21.8 E 11 13 1017.6 - - - - - - - - -
30/03:30pm 21.9 E 11 13 1017.6 - - - - - - - - -
30/03:00pm 21.9 E 11 13 1017.6 - - - - - - - - -
30/02:30pm 21.8 E 11 13 1017.9 - - - - - - - - -
30/02:00pm 21.5 E 11 12 1018.2 - - - - - - - - -
30/01:30pm 21.6 E 10 11 1018.5 - - - - - - - - -
30/01:00pm 21.5 E 8 10 1019.0 - - - - - - - - -
30/12:30pm 21.4 E 8 9 1019.4 - - - - - - - - -
30/12:00pm 21.2 E 8 9 1020.2 - - - - - - - - -
30/11:30am 21.1 ESE 7 9 1020.5 - - - - - - - - -
30/11:00am 20.8 SE 8 10 1021.1 - - - - - - - - -
30/10:30am 20.4 SE 10 12 1021.5 - - - - - - - - -
30/10:00am 20.3 SSE 10 13 1021.6 - - - - - - - - -
30/09:30am 19.9 SSE 9 11 1021.6 - - - - - - - - -
30/09:00am 19.7 SSE 9 11 1021.4 - - - - - - - - -
30/08:30am 19.5 SSE 10 12 1021.3 - - - - - - - - -
30/08:00am 19.2 SSE 10 12 1021.2 - - - - - - - - -
30/07:30am 19.1 SSE 9 11 1020.8 - - - - - - - - -
30/07:00am 18.9 SSE 9 11 1020.7 - - - - - - - - -
30/06:30am 19.0 SE 9 11 1020.6 - - - - - - - - -
30/06:00am 19.1 SSE 8 10 1020.3 - - - - - - - - -
30/05:30am 19.1 SSE 10 12 1019.8 - - - - - - - - -
30/05:00am 19.3 SSE 7 8 1019.5 - - - - - - - - -
30/04:30am 19.8 S 6 8 1019.2 - - - - - - - - -
30/04:00am 19.9 SSE 7 9 1019.2 - - - - - - - - -
30/03:30am 19.9 SSE 7 8 1019.2 - - - - - - - - -
30/03:00am 20.2 SSE 8 10 1019.2 - - - - - - - - -
30/02:30am 20.2 SE 7 8 1019.5 - - - - - - - - -
30/02:00am 20.7 SSE 5 6 1019.7 - - - - - - - - -

Other Formats:

Comma delimited format used in spreadsheet applications
http://www.bom.gov.au/fwo/IDQ60701/IDQ60701.94297.axf

JavaScript Object Notation format (JSON) in row-major order
http://www.bom.gov.au/fwo/IDQ60701/IDQ60701.94297.json